Time;durP1;ratioP1;P1;durP2;ratioP2;P2;SDS_P1;SDS_P2;PMS_P1;PMS_P2;Temp;Humidity;BMP_temperature;BMP_pressure;BME280_temperature;BME280_humidity;BME280_pressure;Samples;Min_cycle;Max_cycle;Signal;HPM_P1;HPM_P2
2022/05/21 00:01:00;;;;;;;10.20;6.00;;;12.20;99.90;;;;;;5072358;28;20269;-59
2022/05/21 00:03:27;;;;;;;9.87;6.57;;;12.20;99.90;;;;;;5072029;28;20272;-59
2022/05/21 00:05:53;;;;;;;11.07;6.97;;;12.20;99.90;;;;;;5071821;28;20259;-59
2022/05/21 00:08:21;;;;;;;13.57;7.87;;;12.10;99.90;;;;;;5071230;28;20212;-59
2022/05/21 00:10:48;;;;;;;12.23;7.97;;;12.10;99.90;;;;;;5072246;28;20206;-59
2022/05/21 00:13:14;;;;;;;11.57;7.60;;;12.10;99.90;;;;;;5072308;28;20228;-58
2022/05/21 00:15:42;;;;;;;11.90;8.17;;;12.00;99.90;;;;;;5071888;28;20213;-58
2022/05/21 00:18:09;;;;;;;11.60;7.70;;;12.00;99.90;;;;;;5071793;28;20210;-58
2022/05/21 00:20:48;;;;;;;11.77;8.37;;;12.00;99.90;;;;;;5071826;28;20209;-56
2022/05/21 00:23:18;;;;;;;9.93;7.07;;;11.90;99.90;;;;;;5072084;28;20221;-59
2022/05/21 00:25:49;;;;;;;13.30;7.20;;;11.90;99.90;;;;;;5071791;28;20740;-58
2022/05/21 00:28:16;;;;;;;13.53;8.30;;;11.90;99.90;;;;;;5071800;28;20205;-56
2022/05/21 00:30:43;;;;;;;11.30;8.33;;;11.80;99.90;;;;;;5071908;28;20733;-57
2022/05/21 00:33:09;;;;;;;14.70;8.87;;;11.70;99.90;;;;;;5071569;28;20226;-55
2022/05/21 00:35:36;;;;;;;13.97;9.03;;;11.60;99.90;;;;;;5071874;28;20221;-58
2022/05/21 00:38:03;;;;;;;13.90;9.47;;;11.60;99.90;;;;;;5071329;28;20354;-57
2022/05/21 00:40:30;;;;;;;13.60;9.47;;;11.60;99.90;;;;;;5071943;28;20209;-59
2022/05/21 00:42:58;;;;;;;16.17;9.93;;;11.50;99.90;;;;;;5071483;28;20225;-59
2022/05/21 00:45:25;;;;;;;15.47;10.30;;;11.40;99.90;;;;;;5071819;28;20234;-56
2022/05/21 00:47:52;;;;;;;16.73;10.27;;;11.30;99.90;;;;;;5071246;28;20212;-58
2022/05/21 00:50:22;;;;;;;13.97;9.90;;;11.30;99.90;;;;;;5071753;28;20633;-58
2022/05/21 00:52:52;;;;;;;15.73;10.53;;;11.30;99.90;;;;;;5071824;28;20224;-59
2022/05/21 00:55:20;;;;;;;16.23;11.33;;;11.30;99.90;;;;;;5071594;28;20205;-57
2022/05/21 00:59:47;;;;;;;16.50;10.90;;;11.30;99.90;;;;;;5071400;28;20224;-58
2022/05/21 01:00:40;;;;;;;15.37;10.67;;;11.20;99.90;;;;;;5071464;28;20207;-58
2022/05/21 01:03:08;;;;;;;17.80;10.77;;;11.20;99.90;;;;;;5071696;28;20234;-56
2022/05/21 01:05:38;;;;;;;14.53;10.57;;;11.10;99.90;;;;;;5071395;28;20209;-57
2022/05/21 01:08:05;;;;;;;16.70;10.10;;;11.10;99.90;;;;;;5071249;28;20205;-59
2022/05/21 01:10:36;;;;;;;15.87;10.47;;;11.10;99.90;;;;;;5071400;28;20274;-59
2022/05/21 01:13:05;;;;;;;13.97;10.13;;;11.10;99.90;;;;;;5071439;28;20229;-59
2022/05/21 01:15:37;;;;;;;14.93;10.13;;;11.10;99.90;;;;;;5071294;28;20209;-59
2022/05/21 01:18:07;;;;;;;17.13;9.97;;;11.00;99.90;;;;;;5071609;28;20271;-59
2022/05/21 01:20:39;;;;;;;13.90;9.63;;;11.00;99.90;;;;;;5075259;28;20205;-58
2022/05/21 01:23:08;;;;;;;14.17;9.77;;;11.00;99.90;;;;;;5074914;28;20249;-58
2022/05/21 01:25:37;;;;;;;12.67;9.47;;;10.90;99.90;;;;;;5075293;28;20209;-56
2022/05/21 01:28:05;;;;;;;13.97;9.43;;;10.90;99.90;;;;;;5074766;28;20201;-57
2022/05/21 01:30:36;;;;;;;12.33;9.03;;;10.90;99.90;;;;;;5075199;28;20278;-59
2022/05/21 01:33:05;;;;;;;13.07;8.77;;;10.90;99.90;;;;;;5075097;28;20228;-59
2022/05/21 01:35:32;;;;;;;15.67;8.70;;;10.90;99.90;;;;;;5074676;28;20934;-59
2022/05/21 01:37:59;;;;;;;14.13;7.83;;;10.80;99.90;;;;;;5074660;28;20235;-58
2022/05/21 01:40:27;;;;;;;14.00;7.83;;;10.80;99.90;;;;;;5074919;28;20257;-59
2022/05/21 01:45:35;;;;;;;18.77;8.83;;;10.80;99.90;;;;;;5074106;28;20648;-59
2022/05/21 01:48:02;;;;;;;12.90;7.63;;;10.80;99.90;;;;;;5074455;28;20624;-59
2022/05/21 01:50:29;;;;;;;13.97;8.47;;;10.80;99.90;;;;;;5074812;28;20240;-59
2022/05/21 01:52:56;;;;;;;10.77;7.10;;;10.80;99.90;;;;;;5074731;28;20229;-58
2022/05/21 01:55:23;;;;;;;12.60;7.27;;;10.80;99.90;;;;;;5074762;28;20288;-59
2022/05/21 01:57:51;;;;;;;9.33;6.97;;;10.80;99.90;;;;;;5074185;28;20284;-59
2022/05/21 02:00:19;;;;;;;11.63;7.60;;;10.80;99.90;;;;;;5074519;28;20208;-59
2022/05/21 02:02:45;;;;;;;11.20;7.53;;;10.90;99.90;;;;;;5074268;28;20225;-59
2022/05/21 02:05:13;;;;;;;9.27;6.70;;;10.90;99.90;;;;;;5074714;28;20258;-59
2022/05/21 02:07:40;;;;;;;12.70;7.67;;;11.00;99.90;;;;;;5073802;28;20725;-59
2022/05/21 02:10:08;;;;;;;9.53;6.13;;;11.00;99.90;;;;;;5074388;28;20236;-59
2022/05/21 02:12:34;;;;;;;10.53;6.63;;;11.00;99.90;;;;;;5074452;28;20633;-59
2022/05/21 02:15:02;;;;;;;11.90;6.80;;;11.10;99.90;;;;;;5073903;28;20262;-59
2022/05/21 02:17:29;;;;;;;11.03;6.43;;;11.10;99.90;;;;;;5074105;28;20212;-59
2022/05/21 02:19:56;;;;;;;14.43;6.53;;;11.10;99.90;;;;;;5074116;28;20263;-59
2022/05/21 02:22:23;;;;;;;10.50;6.17;;;11.10;99.90;;;;;;5074270;28;20235;-59
2022/05/21 02:24:50;;;;;;;11.57;6.50;;;11.10;99.90;;;;;;5074204;28;20201;-60
2022/05/21 02:27:17;;;;;;;8.50;5.47;;;11.10;99.90;;;;;;5073567;28;20243;-59
2022/05/21 02:29:44;;;;;;;10.40;6.10;;;11.10;99.90;;;;;;5073029;28;20205;-59
2022/05/21 02:32:14;;;;;;;9.80;5.90;;;11.10;99.90;;;;;;5074061;28;20229;-60
2022/05/21 02:34:41;;;;;;;8.70;5.13;;;11.20;99.90;;;;;;5074103;28;20239;-59
2022/05/21 02:39:53;;;;;;;10.73;5.37;;;11.30;99.90;;;;;;5073570;28;20690;-58
2022/05/21 02:45:06;;;;;;;10.07;5.67;;;11.30;99.90;;;;;;5073827;28;20200;-57
2022/05/21 02:47:34;;;;;;;8.27;4.60;;;11.30;99.90;;;;;;5073316;28;20209;-56
2022/05/21 02:50:01;;;;;;;9.20;5.10;;;11.40;99.90;;;;;;5073686;28;20278;-57
2022/05/21 02:52:27;;;;;;;9.00;5.07;;;11.40;99.90;;;;;;5073547;28;20723;-59
2022/05/21 02:54:54;;;;;;;8.00;5.40;;;11.40;99.90;;;;;;5073284;28;20205;-55
2022/05/21 02:57:21;;;;;;;8.97;4.67;;;11.40;99.90;;;;;;5073299;28;20232;-58
2022/05/21 02:59:49;;;;;;;10.50;4.70;;;11.50;99.90;;;;;;5073258;28;20699;-58
2022/05/21 03:02:15;;;;;;;11.13;5.53;;;11.40;99.90;;;;;;5073324;28;20905;-55
2022/05/21 03:04:43;;;;;;;15.03;5.00;;;11.50;99.90;;;;;;5073184;28;20212;-58
2022/05/21 03:07:10;;;;;;;5.33;3.93;;;11.50;99.90;;;;;;5072370;28;20201;-55
2022/05/21 03:12:22;;;;;;;9.73;3.97;;;11.60;99.90;;;;;;5073588;28;20227;-55
2022/05/21 03:14:48;;;;;;;8.63;4.30;;;11.60;99.90;;;;;;5074320;28;20299;-59
2022/05/21 03:17:15;;;;;;;7.50;4.80;;;11.60;99.90;;;;;;5072537;28;20270;-59
2022/05/21 03:19:43;;;;;;;7.77;4.93;;;11.60;99.90;;;;;;5072927;28;20209;-59
2022/05/21 03:22:10;;;;;;;12.50;6.03;;;11.60;99.90;;;;;;5072556;28;20290;-59
2022/05/21 03:24:36;;;;;;;11.73;5.70;;;11.60;99.90;;;;;;5073016;28;20262;-59
2022/05/21 03:27:03;;;;;;;10.97;7.13;;;11.60;99.90;;;;;;5072593;28;20205;-59
2022/05/21 03:29:30;;;;;;;12.93;6.03;;;11.60;99.90;;;;;;5073081;28;20247;-56
2022/05/21 03:31:57;;;;;;;13.60;7.67;;;11.60;99.90;;;;;;5072715;28;20229;-59
2022/05/21 03:34:24;;;;;;;13.53;8.27;;;11.60;99.90;;;;;;5072483;28;20254;-59
2022/05/21 03:36:52;;;;;;;16.33;7.37;;;11.60;99.90;;;;;;5073077;28;20671;-57
2022/05/21 03:39:18;;;;;;;10.87;7.77;;;11.60;99.90;;;;;;5072844;28;20213;-55
2022/05/21 03:41:45;;;;;;;13.53;8.97;;;11.60;99.90;;;;;;5072690;28;20259;-58
2022/05/21 03:44:12;;;;;;;12.07;9.03;;;11.60;99.90;;;;;;5072467;28;20250;-56
2022/05/21 03:46:38;;;;;;;13.70;9.40;;;11.60;99.90;;;;;;5072286;28;20274;-59
2022/05/21 03:49:05;;;;;;;12.97;8.67;;;11.60;99.90;;;;;;5072312;28;20306;-59
2022/05/21 03:51:32;;;;;;;13.87;9.50;;;11.60;99.90;;;;;;5072453;28;20213;-59
2022/05/21 03:54:00;;;;;;;14.37;9.67;;;11.60;99.90;;;;;;5072628;28;20586;-57
2022/05/21 03:56:27;;;;;;;15.87;9.67;;;11.60;99.90;;;;;;5072122;28;20206;-58
2022/05/21 03:58:53;;;;;;;14.80;9.20;;;11.60;99.90;;;;;;5072447;28;20225;-59
2022/05/21 04:01:20;;;;;;;15.57;9.30;;;11.60;99.90;;;;;;5071912;28;20255;-58
2022/05/21 04:03:47;;;;;;;15.93;9.20;;;11.60;99.90;;;;;;5071732;28;20226;-58
2022/05/21 04:06:13;;;;;;;12.83;9.33;;;11.60;99.90;;;;;;5071993;28;20237;-59
2022/05/21 04:08:40;;;;;;;15.00;9.63;;;11.60;99.90;;;;;;5072093;28;20615;-59
2022/05/21 04:11:08;;;;;;;16.07;8.87;;;11.60;99.90;;;;;;5072192;28;20297;-59
2022/05/21 04:13:35;;;;;;;15.80;9.03;;;11.60;99.90;;;;;;5072017;28;20232;-57
2022/05/21 04:16:02;;;;;;;18.17;9.60;;;11.60;99.90;;;;;;5071634;28;20217;-59
2022/05/21 04:18:28;;;;;;;17.73;9.50;;;11.70;99.90;;;;;;5072024;28;20231;-58
2022/05/21 04:20:55;;;;;;;18.97;10.77;;;11.70;99.90;;;;;;5071968;28;20209;-58
2022/05/21 04:23:21;;;;;;;14.20;9.90;;;11.70;99.90;;;;;;5071986;28;20652;-56
2022/05/21 04:25:48;;;;;;;15.17;9.47;;;11.60;99.90;;;;;;5071856;28;20235;-59
2022/05/21 04:28:16;;;;;;;13.47;8.90;;;11.60;99.90;;;;;;5071812;28;20204;-59
2022/05/21 04:30:43;;;;;;;14.50;8.43;;;11.70;99.90;;;;;;5071606;28;20259;-59
2022/05/21 04:33:10;;;;;;;17.77;9.60;;;11.70;99.90;;;;;;5072030;28;20228;-58
2022/05/21 04:38:23;;;;;;;13.20;7.40;;;11.70;99.90;;;;;;5046001;28;20325;-59
2022/05/21 04:40:50;;;;;;;14.90;8.20;;;11.70;99.90;;;;;;5071681;28;20193;-58
2022/05/21 04:43:18;;;;;;;14.30;8.40;;;11.70;99.90;;;;;;5071514;28;20225;-59
2022/05/21 04:45:44;;;;;;;17.07;9.50;;;11.60;99.90;;;;;;5071947;28;20209;-59
2022/05/21 04:48:11;;;;;;;15.80;9.03;;;11.60;99.90;;;;;;5071596;28;20210;-59
2022/05/21 04:50:39;;;;;;;16.70;8.60;;;11.60;99.90;;;;;;5071727;28;20215;-59
2022/05/21 04:53:06;;;;;;;20.23;8.40;;;11.60;99.90;;;;;;5072258;28;20266;-59
2022/05/21 04:55:33;;;;;;;16.10;8.93;;;11.60;99.90;;;;;;5075972;28;20201;-58
2022/05/21 04:57:59;;;;;;;14.53;9.03;;;11.60;99.90;;;;;;5075132;28;20653;-59
2022/05/21 05:00:28;;;;;;;16.27;9.57;;;11.60;99.90;;;;;;5075868;28;20208;-58
2022/05/21 05:02:54;;;;;;;16.80;9.00;;;11.60;99.90;;;;;;5075576;28;20316;-59
2022/05/21 05:05:22;;;;;;;12.67;8.47;;;11.70;99.90;;;;;;5075533;28;20231;-59
2022/05/21 05:07:49;;;;;;;16.03;9.17;;;11.70;99.90;;;;;;5075362;28;20721;-58
2022/05/21 05:10:16;;;;;;;16.30;9.87;;;11.70;99.90;;;;;;5075341;28;20255;-59
2022/05/21 05:12:42;;;;;;;14.43;8.97;;;11.70;99.90;;;;;;5075355;28;20711;-59
2022/05/21 05:15:10;;;;;;;17.27;9.50;;;11.70;99.90;;;;;;5075148;28;20208;-59
2022/05/21 05:17:38;;;;;;;14.23;9.20;;;11.70;99.90;;;;;;5075167;28;20281;-59
2022/05/21 05:20:06;;;;;;;17.50;8.80;;;11.80;99.90;;;;;;5075203;28;20749;-59
2022/05/21 05:22:32;;;;;;;18.33;8.70;;;11.70;99.90;;;;;;5074822;28;20305;-59
2022/05/21 05:25:02;;;;;;;11.57;7.90;;;11.80;99.90;;;;;;5075338;28;20208;-59
2022/05/21 05:27:29;;;;;;;15.77;8.87;;;11.80;99.90;;;;;;5074987;28;20201;-59
2022/05/21 05:29:56;;;;;;;15.63;8.43;;;11.90;99.90;;;;;;5075170;28;20676;-59
2022/05/21 05:32:23;;;;;;;12.13;7.83;;;11.90;99.90;;;;;;5075004;28;20232;-59
2022/05/21 05:34:50;;;;;;;13.30;7.13;;;12.00;99.90;;;;;;5075014;28;20687;-59
2022/05/21 05:37:17;;;;;;;10.80;6.80;;;12.00;99.90;;;;;;5074774;28;20205;-59
2022/05/21 05:39:44;;;;;;;11.13;6.87;;;12.00;99.90;;;;;;5075039;28;20212;-60
2022/05/21 05:42:10;;;;;;;11.07;6.67;;;12.10;99.90;;;;;;5074760;28;20786;-59
2022/05/21 05:44:37;;;;;;;9.80;6.53;;;12.10;99.90;;;;;;5074844;28;20207;-59
2022/05/21 05:47:04;;;;;;;15.10;6.30;;;12.20;99.90;;;;;;5074802;28;20248;-59
2022/05/21 05:49:31;;;;;;;12.43;6.37;;;12.20;99.90;;;;;;5074699;28;20251;-57
2022/05/21 05:51:59;;;;;;;11.97;6.03;;;12.20;99.90;;;;;;5074830;28;20225;-59
2022/05/21 05:54:26;;;;;;;13.43;5.70;;;12.20;99.90;;;;;;5075626;28;20222;-59
2022/05/21 05:56:52;;;;;;;11.33;6.03;;;12.10;99.90;;;;;;5074605;28;20722;-59
2022/05/21 06:04:48;;;;;;;12.13;6.40;;;12.10;99.90;;;;;;5073182;28;20198;-59
2022/05/21 06:07:16;;;;;;;12.77;6.30;;;12.20;99.90;;;;;;5074333;28;20205;-60
2022/05/21 06:09:43;;;;;;;13.13;6.50;;;12.30;99.90;;;;;;5074644;28;20207;-59
2022/05/21 06:12:11;;;;;;;15.10;6.60;;;12.40;99.90;;;;;;5074080;28;20779;-59
2022/05/21 06:14:37;;;;;;;10.53;6.47;;;12.50;99.90;;;;;;5074569;28;20246;-59
2022/05/21 06:17:04;;;;;;;14.17;7.13;;;12.60;99.90;;;;;;5073917;28;20216;-59
2022/05/21 06:19:31;;;;;;;13.13;6.70;;;12.70;99.90;;;;;;5074151;28;20294;-59
2022/05/21 06:21:58;;;;;;;14.23;6.97;;;12.70;99.90;;;;;;5074570;28;20273;-59
2022/05/21 06:24:26;;;;;;;9.50;6.97;;;12.60;99.90;;;;;;5074302;28;20256;-59
2022/05/21 06:26:53;;;;;;;11.93;7.23;;;12.60;99.90;;;;;;5073845;28;20203;-59
2022/05/21 06:29:19;;;;;;;14.10;6.87;;;12.60;99.90;;;;;;5074143;28;20618;-59
2022/05/21 06:31:46;;;;;;;8.30;6.33;;;12.60;99.90;;;;;;5074115;28;20359;-59
2022/05/21 06:34:13;;;;;;;16.10;7.13;;;12.60;99.90;;;;;;5074288;28;20278;-59
2022/05/21 06:36:39;;;;;;;11.37;7.33;;;12.60;99.90;;;;;;5073940;28;20207;-59
2022/05/21 06:39:06;;;;;;;11.17;7.43;;;12.60;99.90;;;;;;5074097;28;20228;-59
2022/05/21 06:41:34;;;;;;;12.33;7.20;;;12.60;99.90;;;;;;5073711;28;20209;-59
2022/05/21 06:44:01;;;;;;;14.30;7.73;;;12.60;99.90;;;;;;5073751;28;20211;-59
2022/05/21 06:46:27;;;;;;;15.47;7.00;;;12.60;99.90;;;;;;5073465;28;20212;-59
2022/05/21 06:48:54;;;;;;;13.47;7.13;;;12.60;99.90;;;;;;5073814;28;20604;-59
2022/05/21 06:51:21;;;;;;;11.60;6.87;;;12.70;99.90;;;;;;5073665;28;20248;-59
2022/05/21 06:53:47;;;;;;;14.70;7.93;;;12.70;99.90;;;;;;5073978;28;20209;-60
2022/05/21 06:56:16;;;;;;;17.37;7.53;;;12.70;99.90;;;;;;5073358;28;20552;-59
2022/05/21 06:58:45;;;;;;;15.07;7.10;;;12.80;99.90;;;;;;5073667;28;20255;-59
2022/05/21 07:01:12;;;;;;;11.90;6.43;;;12.80;99.90;;;;;;5073833;28;20261;-59
2022/05/21 07:03:39;;;;;;;14.37;6.27;;;12.90;99.90;;;;;;5073248;28;20229;-59
2022/05/21 07:08:51;;;;;;;12.40;6.30;;;13.00;99.90;;;;;;5073075;28;20203;-59
2022/05/21 07:11:17;;;;;;;15.13;6.77;;;13.00;99.90;;;;;;5073126;28;20207;-59
2022/05/21 07:13:46;;;;;;;14.37;7.57;;;13.00;99.90;;;;;;5073197;28;20273;-59
2022/05/21 07:16:13;;;;;;;14.53;6.87;;;13.00;99.90;;;;;;5072335;28;20312;-59
2022/05/21 07:18:39;;;;;;;11.53;5.90;;;12.90;99.90;;;;;;5073360;28;20629;-59
2022/05/21 07:21:10;;;;;;;15.07;7.23;;;12.90;99.90;;;;;;5073177;28;20224;-60
2022/05/21 07:23:37;;;;;;;14.07;6.33;;;12.90;99.90;;;;;;5073106;28;20229;-58
2022/05/21 07:26:04;;;;;;;11.30;6.67;;;12.90;99.90;;;;;;5072829;28;20265;-58
2022/05/21 07:28:30;;;;;;;11.43;6.37;;;12.90;99.90;;;;;;5073131;28;20265;-58
2022/05/21 07:30:58;;;;;;;11.33;6.87;;;12.90;99.90;;;;;;5072852;28;20758;-58
2022/05/21 07:33:25;;;;;;;10.27;6.70;;;12.90;99.90;;;;;;5072528;28;20251;-56
2022/05/21 07:35:52;;;;;;;13.67;7.10;;;12.90;99.90;;;;;;5072548;28;20744;-58
2022/05/21 07:38:19;;;;;;;18.03;7.70;;;12.90;99.90;;;;;;5072225;28;20227;-56
2022/05/21 07:40:47;;;;;;;14.00;7.13;;;12.90;99.90;;;;;;5072850;28;20589;-56
2022/05/21 07:43:16;;;;;;;15.37;7.50;;;12.80;99.90;;;;;;5073156;28;20227;-58
2022/05/21 07:45:43;;;;;;;11.93;7.53;;;12.90;99.90;;;;;;5072969;28;20680;-57
2022/05/21 07:48:13;;;;;;;15.60;8.83;;;12.90;99.90;;;;;;5072436;28;20214;-59
2022/05/21 07:50:42;;;;;;;13.30;8.33;;;12.90;99.90;;;;;;5072195;28;20741;-59
2022/05/21 07:53:12;;;;;;;14.50;8.10;;;12.90;99.90;;;;;;5072542;28;20672;-59
2022/05/21 07:55:43;;;;;;;15.30;7.67;;;12.90;99.90;;;;;;5072571;28;20211;-59
2022/05/21 07:58:09;;;;;;;15.60;8.43;;;13.00;99.90;;;;;;5071988;28;20236;-59
2022/05/21 08:00:36;;;;;;;17.93;9.47;;;13.00;99.90;;;;;;5072454;28;20237;-59
2022/05/21 08:03:03;;;;;;;16.20;8.27;;;12.90;99.90;;;;;;5072156;28;20300;-62
2022/05/21 08:05:31;;;;;;;18.40;8.80;;;12.90;99.90;;;;;;5048198;28;20576;-61
2022/05/21 08:07:58;;;;;;;13.23;8.00;;;13.00;99.90;;;;;;5051523;28;20212;-62
2022/05/21 08:10:25;;;;;;;14.03;8.17;;;13.00;99.90;;;;;;5051361;28;20259;-61
2022/05/21 08:12:52;;;;;;;14.70;7.70;;;13.10;99.90;;;;;;5051686;28;20282;-59
2022/05/21 08:15:20;;;;;;;16.73;8.03;;;13.10;99.90;;;;;;5051030;28;20267;-60
2022/05/21 08:17:47;;;;;;;12.27;7.43;;;13.10;99.90;;;;;;5051209;28;20208;-59
2022/05/21 08:20:15;;;;;;;13.20;8.00;;;13.10;99.90;;;;;;5051598;28;20229;-60
2022/05/21 08:28:13;;;;;;;13.17;7.87;;;13.40;99.90;;;;;;5050929;28;20205;-59
2022/05/21 08:30:40;;;;;;;17.97;7.93;;;13.60;99.90;;;;;;5051187;28;20675;-62
2022/05/21 08:33:08;;;;;;;13.43;7.27;;;13.80;99.90;;;;;;5051894;28;20230;-62
2022/05/21 08:35:38;;;;;;;13.70;8.03;;;13.90;99.10;;;;;;5051381;28;20205;-60
2022/05/21 08:38:06;;;;;;;15.03;8.07;;;14.00;93.70;;;;;;5051618;28;20212;-60
2022/05/21 08:40:42;;;;;;;11.27;7.03;;;14.30;95.90;;;;;;5051360;28;20206;-60
2022/05/21 08:43:19;;;;;;;12.50;7.03;;;14.50;99.90;;;;;;5051531;28;20228;-61
2022/05/21 08:45:59;;;;;;;14.53;7.73;;;14.70;87.90;;;;;;5050981;28;20205;-61
2022/05/21 08:48:31;;;;;;;12.97;7.37;;;14.90;54.60;;;;;;5051253;28;20205;-61
2022/05/21 08:50:57;;;;;;;12.60;6.53;;;14.90;55.00;;;;;;5051218;28;20236;-61
2022/05/21 08:53:29;;;;;;;13.70;7.00;;;14.90;52.80;;;;;;5051291;28;20237;-61
2022/05/21 08:56:00;;;;;;;15.67;7.57;;;14.80;28.10;;;;;;5050697;28;20217;-61
2022/05/21 08:58:33;;;;;;;16.40;8.30;;;14.60;24.60;;;;;;5051300;28;20275;-61
2022/05/21 09:00:59;;;;;;;12.50;7.77;;;14.40;40.00;;;;;;5051282;28;20668;-61
2022/05/21 09:03:27;;;;;;;13.47;7.43;;;14.30;54.20;;;;;;5050897;28;20226;-61
2022/05/21 09:06:12;;;;;;;15.80;7.70;;;14.30;37.10;;;;;;5050471;28;20217;-61
2022/05/21 09:08:47;;;;;;;17.57;7.53;;;14.20;42.80;;;;;;5051597;28;20201;-63
2022/05/21 09:11:16;;;;;;;12.80;7.60;;;14.20;74.50;;;;;;5050989;28;20908;-62
2022/05/21 09:13:50;;;;;;;17.10;7.67;;;14.10;73.10;;;;;;5051221;28;20257;-62
2022/05/21 09:19:04;;;;;;;17.00;7.83;;;14.00;86.00;;;;;;5051014;28;20244;-61
2022/05/21 09:21:33;;;;;;;14.33;8.67;;;13.90;84.60;;;;;;5050992;28;20216;-60
2022/05/21 09:24:02;;;;;;;16.33;8.13;;;14.00;94.20;;;;;;5050867;28;20216;-60
2022/05/21 09:26:31;;;;;;;15.77;8.40;;;14.10;98.10;;;;;;5049877;28;20212;-61
2022/05/21 09:29:16;;;;;;;12.87;8.57;;;14.20;99.90;;;;;;5050992;28;20202;-61
2022/05/21 09:31:44;;;;;;;13.43;9.33;;;14.20;90.30;;;;;;5051119;28;20229;-62
2022/05/21 09:34:14;;;;;;;15.43;9.40;;;14.20;79.00;;;;;;5050854;28;20209;-61
2022/05/21 09:36:41;;;;;;;17.27;10.53;;;14.30;67.70;;;;;;5050174;28;20206;-62
2022/05/21 09:39:09;;;;;;;20.27;9.63;;;14.20;71.00;;;;;;5051594;28;20256;-60
2022/05/21 09:41:37;;;;;;;15.37;9.50;;;14.30;86.20;;;;;;5054540;28;20225;-61
2022/05/21 09:47:10;;;;;;;18.20;9.30;;;14.50;77.90;;;;;;5053926;28;20710;-60
2022/05/21 09:49:38;;;;;;;19.90;9.20;;;14.60;71.90;;;;;;5054722;28;20829;-60
2022/05/21 09:52:07;;;;;;;17.43;8.90;;;14.90;97.20;;;;;;5054364;28;20312;-60
2022/05/21 09:54:37;;;;;;;16.40;7.23;;;15.10;58.10;;;;;;5054674;28;20209;-58
2022/05/21 09:57:05;;;;;;;17.30;8.40;;;15.10;33.90;;;;;;5053735;28;20616;-62
2022/05/21 09:59:33;;;;;;;16.10;8.17;;;15.10;5.30;;;;;;5054137;28;20287;-60
2022/05/21 10:02:02;;;;;;;16.17;8.07;;;15.00;7.70;;;;;;5053947;28;20233;-61
2022/05/21 10:04:44;;;;;;;13.47;7.83;;;15.00;56.90;;;;;;5054362;28;20205;-61
2022/05/21 10:10:58;;;;;;;18.10;7.87;;;15.30;50.70;;;;;;5053560;28;20300;-60
2022/05/21 10:13:03;;;;;;;13.33;7.23;;;16.10;14.30;;;;;;5054102;28;20598;-61
2022/05/21 10:15:35;;;;;;;15.40;7.30;;;16.30;1.00;;;;;;5053630;28;20209;-61
2022/05/21 10:18:08;;;;;;;12.80;6.80;;;16.60;6.70;;;;;;5053600;28;20209;-59
2022/05/21 10:20:41;;;;;;;18.07;6.73;;;16.90;10.70;;;;;;5053841;28;20222;-59
2022/05/21 10:23:25;;;;;;;11.33;6.70;;;16.90;1.00;;;;;;5053862;28;20229;-58
2022/05/21 10:26:02;;;;;;;13.43;6.63;;;17.10;1.00;;;;;;5053300;28;20205;-61
2022/05/21 10:28:44;;;;;;;15.10;7.23;;;17.20;99.90;;;;;;5053612;28;20201;-60
2022/05/21 10:31:33;;;;;;;12.10;6.77;;;17.20;99.90;;;;;;5053539;28;20260;-60
2022/05/21 10:34:13;;;;;;;12.77;6.50;;;17.20;99.90;;;;;;5053544;28;20688;-59
2022/05/21 10:36:52;;;;;;;13.03;6.20;;;17.60;99.90;;;;;;5052889;28;20672;-60
2022/05/21 10:39:33;;;;;;;13.57;7.07;;;17.80;99.90;;;;;;5053382;28;20621;-61
2022/05/21 10:42:18;;;;;;;11.60;6.90;;;17.70;99.90;;;;;;5053576;28;20228;-59
2022/05/21 10:44:58;;;;;;;13.57;6.13;;;17.70;1.00;;;;;;5052571;28;20255;-59
2022/05/21 10:47:39;;;;;;;11.13;6.17;;;17.50;1.00;;;;;;5052866;28;20213;-60
2022/05/21 10:50:25;;;;;;;13.77;5.40;;;17.30;1.00;;;;;;5053402;28;20205;-65
2022/05/21 10:53:12;;;;;;;13.10;4.97;;;17.20;1.00;;;;;;5052966;28;20226;-65
2022/05/21 10:55:45;;;;;;;11.27;5.73;;;17.30;1.00;;;;;;5053198;28;20213;-65
2022/05/21 10:58:32;;;;;;;8.63;5.30;;;17.50;99.90;;;;;;5052683;28;20270;-63
2022/05/21 11:01:10;;;;;;;8.97;5.70;;;17.20;99.90;;;;;;5053285;28;20225;-64
2022/05/21 11:03:49;;;;;;;12.97;5.20;;;17.40;99.90;;;;;;5052917;28;20236;-65
2022/05/21 11:06:24;;;;;;;10.17;5.43;;;17.20;99.90;;;;;;5052190;28;20236;-67
2022/05/21 11:09:02;;;;;;;11.20;6.10;;;17.40;99.90;;;;;;5053089;28;20286;-66
2022/05/21 11:11:37;;;;;;;7.97;4.63;;;17.60;1.00;;;;;;5052929;28;20205;-62
2022/05/21 11:14:12;;;;;;;10.73;5.00;;;17.90;99.90;;;;;;5052881;28;20209;-63
2022/05/21 11:16:44;;;;;;;13.57;5.20;;;17.70;99.90;;;;;;5051398;28;20312;-65
2022/05/21 11:19:17;;;;;;;9.00;4.90;;;17.40;99.90;;;;;;5052970;28;20264;-65
2022/05/21 11:21:49;;;;;;;15.97;6.40;;;17.40;99.90;;;;;;5052594;28;20231;-68
2022/05/21 11:24:23;;;;;;;15.40;8.13;;;17.30;99.90;;;;;;5052878;28;20205;-66
2022/05/21 11:26:53;;;;;;;13.07;5.70;;;17.40;99.90;;;;;;5051377;28;20205;-65
2022/05/21 11:29:28;;;;;;;11.93;6.13;;;17.40;99.90;;;;;;5052712;28;20206;-64
2022/05/21 11:37:43;;;;;;;10.13;6.10;;;16.90;3.10;;;;;;5045522;28;20263;-62
2022/05/21 11:40:49;;;;;;;13.33;6.07;;;16.70;15.10;;;;;;5052373;28;20599;-61
2022/05/21 11:43:16;;;;;;;10.73;5.53;;;16.50;1.00;;;;;;5052202;28;20327;-62
2022/05/21 11:45:59;;;;;;;12.27;5.40;;;16.60;88.00;;;;;;5051563;28;20209;-61
2022/05/21 11:48:29;;;;;;;8.43;5.40;;;16.70;73.40;;;;;;5052177;28;20263;-63
2022/05/21 11:51:26;;;;;;;12.37;6.07;;;16.70;4.40;;;;;;5052106;28;20209;-62
2022/05/21 11:53:52;;;;;;;10.23;5.63;;;16.70;27.60;;;;;;5052348;28;20251;-63
2022/05/21 11:56:20;;;;;;;12.07;5.83;;;16.80;27.60;;;;;;5050857;28;20205;-62
2022/05/21 11:59:13;;;;;;;12.80;5.10;;;17.00;99.90;;;;;;5051393;28;20253;-67
2022/05/21 12:02:16;;;;;;;9.70;4.63;;;17.20;91.60;;;;;;5044306;28;20225;-67
2022/05/21 12:05:05;;;;;;;11.07;4.90;;;17.20;1.00;;;;;;5071454;28;20204;-63
2022/05/21 12:07:55;;;;;;;7.50;4.23;;;17.20;96.80;;;;;;5066875;28;20284;-63
2022/05/21 12:10:29;;;;;;;6.67;4.20;;;17.10;37.90;;;;;;5072119;28;20576;-63
2022/05/21 12:13:22;;;;;;;9.37;5.00;;;17.00;8.70;;;;;;5072052;28;20232;-63
2022/05/21 12:15:51;;;;;;;8.50;4.80;;;17.00;1.00;;;;;;5058250;28;20224;-63
2022/05/21 12:18:40;;;;;;;7.50;4.03;;;17.00;1.00;;;;;;5072965;28;20238;-63
2022/05/21 12:21:09;;;;;;;8.60;4.10;;;17.00;1.00;;;;;;5073191;28;20232;-64
2022/05/21 12:24:03;;;;;;;7.33;4.17;;;17.10;1.00;;;;;;5071563;28;20639;-63
2022/05/21 12:26:31;;;;;;;7.97;4.53;;;17.20;1.00;;;;;;5070508;28;20209;-63
2022/05/21 12:29:08;;;;;;;11.20;5.00;;;17.20;1.00;;;;;;5071723;28;20216;-63
2022/05/21 12:31:40;;;;;;;11.50;5.23;;;17.40;1.00;;;;;;5071292;28;20215;-62
2022/05/21 12:34:40;;;;;;;9.37;4.33;;;17.60;1.00;;;;;;5071650;28;20216;-63
2022/05/21 12:37:12;;;;;;;14.03;5.40;;;17.80;99.90;;;;;;5057244;28;20273;-64
2022/05/21 12:39:51;;;;;;;11.63;6.63;;;17.70;1.00;;;;;;5071058;28;20225;-65
2022/05/21 12:42:24;;;;;;;8.00;4.30;;;17.70;99.90;;;;;;5071405;28;20228;-64
2022/05/21 12:44:51;;;;;;;9.63;5.10;;;17.50;99.90;;;;;;5071322;28;20204;-64
2022/05/21 12:47:27;;;;;;;8.47;4.10;;;17.40;99.90;;;;;;5070689;28;20254;-65
2022/05/21 12:49:54;;;;;;;8.80;4.23;;;17.40;1.00;;;;;;5070833;28;20698;-66
2022/05/21 12:52:25;;;;;;;8.80;4.43;;;17.60;1.00;;;;;;5071063;28;20225;-66
2022/05/21 12:55:21;;;;;;;9.03;4.00;;;17.80;1.00;;;;;;5071001;28;20189;-65
2022/05/21 12:57:50;;;;;;;6.03;3.83;;;18.00;1.00;;;;;;5070744;28;20323;-65
2022/05/21 13:00:19;;;;;;;9.10;4.37;;;18.20;1.00;;;;;;5071494;28;20225;-65
2022/05/21 13:02:48;;;;;;;12.07;4.97;;;18.20;99.90;;;;;;5071419;28;20233;-64
2022/05/21 13:05:23;;;;;;;10.77;4.50;;;17.90;99.90;;;;;;5070519;28;20262;-65
2022/05/21 13:07:53;;;;;;;13.90;4.93;;;17.80;99.90;;;;;;5069827;28;20228;-64
2022/05/21 13:10:24;;;;;;;10.20;4.10;;;17.60;99.90;;;;;;5071105;28;20604;-65
2022/05/21 13:12:53;;;;;;;9.30;3.80;;;17.50;99.90;;;;;;5070970;28;20772;-66
2022/05/21 13:15:25;;;;;;;8.40;4.53;;;17.40;99.90;;;;;;5073672;28;20242;-65
2022/05/21 13:18:04;;;;;;;8.77;4.27;;;17.40;1.00;;;;;;5073959;28;20650;-66
2022/05/21 13:20:37;;;;;;;7.93;4.07;;;17.50;1.00;;;;;;5074937;28;20305;-63
2022/05/21 13:23:16;;;;;;;8.87;4.53;;;17.70;99.90;;;;;;5075099;28;20229;-62
2022/05/21 13:25:50;;;;;;;12.83;4.50;;;17.90;1.00;;;;;;5074467;28;20189;-62
2022/05/21 13:28:20;;;;;;;9.30;4.30;;;18.20;1.00;;;;;;5074509;28;20189;-62
2022/05/21 13:30:49;;;;;;;10.40;4.77;;;18.20;99.90;;;;;;5075001;28;20581;-62
2022/05/21 13:33:32;;;;;;;6.87;4.10;;;18.30;99.90;;;;;;5074933;28;20279;-62
2022/05/21 13:36:01;;;;;;;8.30;4.60;;;18.50;1.00;;;;;;5073752;28;20208;-63